sensor_id;sensor_type;location;lat;lon;timestamp;pressure;altitude;pressure_sealevel;temperature;humidity
53635;BME280;39542;-34.932;138.594;2023-07-08T00:00:30;100909.60;;;15.46;66.42
53635;BME280;39542;-34.932;138.594;2023-07-08T00:01:09;100910.41;;;15.47;66.43
53635;BME280;39542;-34.932;138.594;2023-07-08T00:01:44;100909.24;;;15.48;66.42
53635;BME280;39542;-34.932;138.594;2023-07-08T00:02:19;100911.23;;;15.49;66.44
53635;BME280;39542;-34.932;138.594;2023-07-08T00:02:53;100909.81;;;15.50;66.34
53635;BME280;39542;-34.932;138.594;2023-07-08T00:03:27;100912.95;;;15.50;66.40
53635;BME280;39542;-34.932;138.594;2023-07-08T00:04:02;100918.75;;;15.50;66.43
53635;BME280;39542;-34.932;138.594;2023-07-08T00:04:37;100920.67;;;15.50;66.43
53635;BME280;39542;-34.932;138.594;2023-07-08T00:05:13;100919.57;;;15.48;66.51
53635;BME280;39542;-34.932;138.594;2023-07-08T00:05:49;100917.72;;;15.50;66.51
53635;BME280;39542;-34.932;138.594;2023-07-08T00:06:27;100919.96;;;15.51;66.62
53635;BME280;39542;-34.932;138.594;2023-07-08T00:07:02;100915.74;;;15.51;66.56
53635;BME280;39542;-34.932;138.594;2023-07-08T00:07:36;100917.41;;;15.53;66.54
53635;BME280;39542;-34.932;138.594;2023-07-08T00:08:13;100920.18;;;15.53;66.50
53635;BME280;39542;-34.932;138.594;2023-07-08T00:08:48;100917.69;;;15.53;66.51
53635;BME280;39542;-34.932;138.594;2023-07-08T00:09:22;100920.12;;;15.53;66.62
53635;BME280;39542;-34.932;138.594;2023-07-08T00:09:57;100922.01;;;15.52;66.65
53635;BME280;39542;-34.932;138.594;2023-07-08T00:10:32;100924.19;;;15.53;66.67
53635;BME280;39542;-34.932;138.594;2023-07-08T00:11:11;100924.16;;;15.55;66.64
53635;BME280;39542;-34.932;138.594;2023-07-08T00:11:46;100926.69;;;15.53;66.77
53635;BME280;39542;-34.932;138.594;2023-07-08T00:12:20;100929.51;;;15.54;66.80
53635;BME280;39542;-34.932;138.594;2023-07-08T00:12:56;100931.59;;;15.54;66.81
53635;BME280;39542;-34.932;138.594;2023-07-08T00:13:31;100931.01;;;15.55;66.80
53635;BME280;39542;-34.932;138.594;2023-07-08T00:14:06;100931.51;;;15.55;66.80
53635;BME280;39542;-34.932;138.594;2023-07-08T00:14:40;100931.32;;;15.55;66.95
53635;BME280;39542;-34.932;138.594;2023-07-08T00:15:14;100931.33;;;15.58;67.35
53635;BME280;39542;-34.932;138.594;2023-07-08T00:15:50;100932.25;;;15.58;67.20
53635;BME280;39542;-34.932;138.594;2023-07-08T00:16:26;100931.42;;;15.58;67.37
53635;BME280;39542;-34.932;138.594;2023-07-08T00:17:00;100932.68;;;15.58;67.29
53635;BME280;39542;-34.932;138.594;2023-07-08T00:17:34;100929.54;;;15.58;67.09
53635;BME280;39542;-34.932;138.594;2023-07-08T00:18:13;100929.79;;;15.58;67.05
53635;BME280;39542;-34.932;138.594;2023-07-08T00:18:47;100929.82;;;15.59;66.94
53635;BME280;39542;-34.932;138.594;2023-07-08T00:19:22;100929.17;;;15.59;67.13
53635;BME280;39542;-34.932;138.594;2023-07-08T00:19:56;100930.11;;;15.56;67.20
53635;BME280;39542;-34.932;138.594;2023-07-08T00:20:35;100928.81;;;15.55;67.21
53635;BME280;39542;-34.932;138.594;2023-07-08T00:21:12;100925.24;;;15.54;67.15
53635;BME280;39542;-34.932;138.594;2023-07-08T00:21:47;100925.02;;;15.56;67.12
53635;BME280;39542;-34.932;138.594;2023-07-08T00:22:22;100924.71;;;15.56;67.11
53635;BME280;39542;-34.932;138.594;2023-07-08T00:22:57;100927.33;;;15.56;67.16
53635;BME280;39542;-34.932;138.594;2023-07-08T00:23:31;100925.39;;;15.56;67.15
53635;BME280;39542;-34.932;138.594;2023-07-08T00:24:06;100929.78;;;15.58;67.12
53635;BME280;39542;-34.932;138.594;2023-07-08T00:24:41;100931.48;;;15.58;67.15
53635;BME280;39542;-34.932;138.594;2023-07-08T00:25:16;100933.46;;;15.59;67.16
53635;BME280;39542;-34.932;138.594;2023-07-08T00:25:51;100937.30;;;15.60;67.16
53635;BME280;39542;-34.932;138.594;2023-07-08T00:26:27;100935.28;;;15.60;67.41
53635;BME280;39542;-34.932;138.594;2023-07-08T00:27:03;100937.57;;;15.60;67.29
53635;BME280;39542;-34.932;138.594;2023-07-08T00:27:37;100937.74;;;15.61;67.41
53635;BME280;39542;-34.932;138.594;2023-07-08T00:28:12;100936.37;;;15.64;67.57
53635;BME280;39542;-34.932;138.594;2023-07-08T00:28:48;100937.04;;;15.65;67.34
53635;BME280;39542;-34.932;138.594;2023-07-08T00:29:22;100938.91;;;15.61;67.42
53635;BME280;39542;-34.932;138.594;2023-07-08T00:29:57;100937.00;;;15.61;67.52
53635;BME280;39542;-34.932;138.594;2023-07-08T00:30:32;100933.78;;;15.62;67.40
53635;BME280;39542;-34.932;138.594;2023-07-08T00:31:10;100933.51;;;15.66;67.58
53635;BME280;39542;-34.932;138.594;2023-07-08T00:31:45;100931.94;;;15.65;67.50
53635;BME280;39542;-34.932;138.594;2023-07-08T00:32:19;100932.16;;;15.64;67.44
53635;BME280;39542;-34.932;138.594;2023-07-08T00:32:55;100933.69;;;15.63;67.33
53635;BME280;39542;-34.932;138.594;2023-07-08T00:33:29;100934.74;;;15.62;67.38
53635;BME280;39542;-34.932;138.594;2023-07-08T00:34:03;100936.88;;;15.65;67.35
53635;BME280;39542;-34.932;138.594;2023-07-08T00:34:38;100935.26;;;15.65;67.64
53635;BME280;39542;-34.932;138.594;2023-07-08T00:35:13;100936.75;;;15.65;67.64
53635;BME280;39542;-34.932;138.594;2023-07-08T00:35:48;100938.47;;;15.66;67.61
53635;BME280;39542;-34.932;138.594;2023-07-08T00:36:24;100942.00;;;15.66;67.65
53635;BME280;39542;-34.932;138.594;2023-07-08T00:36:59;100943.23;;;15.67;67.62
53635;BME280;39542;-34.932;138.594;2023-07-08T00:37:34;100946.17;;;15.68;67.70
53635;BME280;39542;-34.932;138.594;2023-07-08T00:38:15;100946.72;;;15.68;67.67
53635;BME280;39542;-34.932;138.594;2023-07-08T00:38:49;100947.23;;;15.67;67.81
53635;BME280;39542;-34.932;138.594;2023-07-08T00:39:23;100947.75;;;15.67;67.87
53635;BME280;39542;-34.932;138.594;2023-07-08T00:39:58;100944.53;;;15.65;67.83
53635;BME280;39542;-34.932;138.594;2023-07-08T00:40:33;100945.72;;;15.65;67.80
53635;BME280;39542;-34.932;138.594;2023-07-08T00:41:14;100942.94;;;15.65;67.93
53635;BME280;39542;-34.932;138.594;2023-07-08T00:41:51;100941.72;;;15.64;67.94
53635;BME280;39542;-34.932;138.594;2023-07-08T00:42:27;100941.37;;;15.66;67.88
53635;BME280;39542;-34.932;138.594;2023-07-08T00:43:03;100941.60;;;15.65;67.99
53635;BME280;39542;-34.932;138.594;2023-07-08T00:43:40;100939.93;;;15.65;67.92
53635;BME280;39542;-34.932;138.594;2023-07-08T00:44:15;100939.68;;;15.65;68.01
53635;BME280;39542;-34.932;138.594;2023-07-08T00:44:50;100936.64;;;15.64;68.05
53635;BME280;39542;-34.932;138.594;2023-07-08T00:45:35;100938.72;;;15.63;68.17
53635;BME280;39542;-34.932;138.594;2023-07-08T00:46:23;100935.09;;;15.62;68.12
53635;BME280;39542;-34.932;138.594;2023-07-08T00:47:07;100932.30;;;15.63;68.13
53635;BME280;39542;-34.932;138.594;2023-07-08T00:47:42;100931.22;;;15.63;68.19
53635;BME280;39542;-34.932;138.594;2023-07-08T00:48:22;100929.45;;;15.63;68.24
53635;BME280;39542;-34.932;138.594;2023-07-08T00:49:02;100928.74;;;15.64;68.23
53635;BME280;39542;-34.932;138.594;2023-07-08T00:49:40;100932.22;;;15.65;68.23
53635;BME280;39542;-34.932;138.594;2023-07-08T00:50:16;100934.89;;;15.65;68.17
53635;BME280;39542;-34.932;138.594;2023-07-08T00:50:51;100935.24;;;15.64;68.15
53635;BME280;39542;-34.932;138.594;2023-07-08T00:51:26;100935.68;;;15.65;68.17
53635;BME280;39542;-34.932;138.594;2023-07-08T00:52:18;100940.32;;;15.65;68.20
53635;BME280;39542;-34.932;138.594;2023-07-08T00:53:26;100940.72;;;15.66;68.15
53635;BME280;39542;-34.932;138.594;2023-07-08T00:54:01;100936.74;;;15.67;68.08
53635;BME280;39542;-34.932;138.594;2023-07-08T00:54:36;100933.04;;;15.69;68.03
53635;BME280;39542;-34.932;138.594;2023-07-08T00:55:11;100932.13;;;15.70;67.98
53635;BME280;39542;-34.932;138.594;2023-07-08T00:55:46;100936.36;;;15.71;68.00
53635;BME280;39542;-34.932;138.594;2023-07-08T00:56:23;100940.68;;;15.70;67.99
53635;BME280;39542;-34.932;138.594;2023-07-08T00:57:02;100944.28;;;15.70;68.03
53635;BME280;39542;-34.932;138.594;2023-07-08T00:57:39;100944.72;;;15.70;68.03
53635;BME280;39542;-34.932;138.594;2023-07-08T00:58:19;100945.65;;;15.70;68.05
53635;BME280;39542;-34.932;138.594;2023-07-08T00:58:58;100946.67;;;15.70;68.04
53635;BME280;39542;-34.932;138.594;2023-07-08T00:59:36;100945.37;;;15.71;68.00
53635;BME280;39542;-34.932;138.594;2023-07-08T01:00:16;100944.86;;;15.70;68.22
53635;BME280;39542;-34.932;138.594;2023-07-08T01:00:51;100944.29;;;15.71;68.19
53635;BME280;39542;-34.932;138.594;2023-07-08T01:01:28;100947.40;;;15.72;68.26
53635;BME280;39542;-34.932;138.594;2023-07-08T01:02:05;100945.24;;;15.74;68.15
53635;BME280;39542;-34.932;138.594;2023-07-08T01:02:45;100948.57;;;15.74;68.24
53635;BME280;39542;-34.932;138.594;2023-07-08T01:03:21;100947.92;;;15.74;68.17
53635;BME280;39542;-34.932;138.594;2023-07-08T01:03:59;100949.15;;;15.76;68.14
53635;BME280;39542;-34.932;138.594;2023-07-08T01:04:37;100952.72;;;15.76;68.15
53635;BME280;39542;-34.932;138.594;2023-07-08T01:05:17;100953.66;;;15.76;68.17
53635;BME280;39542;-34.932;138.594;2023-07-08T01:05:52;100953.01;;;15.78;68.14
53635;BME280;39542;-34.932;138.594;2023-07-08T01:06:28;100955.75;;;15.79;68.04
53635;BME280;39542;-34.932;138.594;2023-07-08T01:07:04;100961.87;;;15.80;68.13
53635;BME280;39542;-34.932;138.594;2023-07-08T01:07:41;100955.95;;;15.80;68.09
53635;BME280;39542;-34.932;138.594;2023-07-08T01:08:16;100957.40;;;15.80;68.20
53635;BME280;39542;-34.932;138.594;2023-07-08T01:08:52;100957.49;;;15.79;68.18
53635;BME280;39542;-34.932;138.594;2023-07-08T01:09:30;100958.92;;;15.79;68.25
53635;BME280;39542;-34.932;138.594;2023-07-08T01:10:09;100957.70;;;15.78;68.25
53635;BME280;39542;-34.932;138.594;2023-07-08T01:10:49;100959.86;;;15.77;68.26
53635;BME280;39542;-34.932;138.594;2023-07-08T01:11:25;100956.99;;;15.77;68.29
53635;BME280;39542;-34.932;138.594;2023-07-08T01:12:02;100958.16;;;15.76;68.29
53635;BME280;39542;-34.932;138.594;2023-07-08T01:12:42;100958.53;;;15.77;68.26
53635;BME280;39542;-34.932;138.594;2023-07-08T01:13:19;100958.57;;;15.77;68.28
53635;BME280;39542;-34.932;138.594;2023-07-08T01:13:55;100957.19;;;15.77;68.34
53635;BME280;39542;-34.932;138.594;2023-07-08T01:14:33;100957.57;;;15.78;68.26
53635;BME280;39542;-34.932;138.594;2023-07-08T01:15:09;100955.13;;;15.77;68.27
53635;BME280;39542;-34.932;138.594;2023-07-08T01:15:47;100955.26;;;15.78;68.35
53635;BME280;39542;-34.932;138.594;2023-07-08T01:16:22;100954.21;;;15.78;68.31
53635;BME280;39542;-34.932;138.594;2023-07-08T01:16:57;100947.79;;;15.80;68.35
53635;BME280;39542;-34.932;138.594;2023-07-08T01:17:31;100947.81;;;15.80;68.31
53635;BME280;39542;-34.932;138.594;2023-07-08T01:18:07;100947.39;;;15.79;68.25
53635;BME280;39542;-34.932;138.594;2023-07-08T01:18:42;100939.97;;;15.80;68.21
53635;BME280;39542;-34.932;138.594;2023-07-08T01:19:19;100942.67;;;15.82;68.33
53635;BME280;39542;-34.932;138.594;2023-07-08T01:19:54;100948.26;;;15.82;68.24
53635;BME280;39542;-34.932;138.594;2023-07-08T01:20:29;100944.60;;;15.82;68.29
53635;BME280;39542;-34.932;138.594;2023-07-08T01:21:06;100941.17;;;15.82;68.23
53635;BME280;39542;-34.932;138.594;2023-07-08T01:22:02;100947.34;;;15.82;68.27
53635;BME280;39542;-34.932;138.594;2023-07-08T01:22:37;100946.60;;;15.82;68.36
53635;BME280;39542;-34.932;138.594;2023-07-08T01:23:12;100954.65;;;15.82;68.30
53635;BME280;39542;-34.932;138.594;2023-07-08T01:23:47;100958.61;;;15.83;68.26
53635;BME280;39542;-34.932;138.594;2023-07-08T01:24:22;100961.34;;;15.83;68.26
53635;BME280;39542;-34.932;138.594;2023-07-08T01:24:57;100959.00;;;15.84;68.36
53635;BME280;39542;-34.932;138.594;2023-07-08T01:25:32;100960.95;;;15.84;68.38
53635;BME280;39542;-34.932;138.594;2023-07-08T01:26:07;100964.19;;;15.84;68.35
53635;BME280;39542;-34.932;138.594;2023-07-08T01:26:43;100963.64;;;15.82;68.39
53635;BME280;39542;-34.932;138.594;2023-07-08T01:27:20;100964.63;;;15.83;68.37
53635;BME280;39542;-34.932;138.594;2023-07-08T01:27:57;100963.26;;;15.84;68.42
53635;BME280;39542;-34.932;138.594;2023-07-08T01:28:32;100960.42;;;15.84;68.37
53635;BME280;39542;-34.932;138.594;2023-07-08T01:29:07;100962.85;;;15.86;68.40
53635;BME280;39542;-34.932;138.594;2023-07-08T01:29:42;100968.03;;;15.86;68.42
53635;BME280;39542;-34.932;138.594;2023-07-08T01:30:17;100966.09;;;15.88;68.36
53635;BME280;39542;-34.932;138.594;2023-07-08T01:30:51;100966.95;;;15.88;68.40
53635;BME280;39542;-34.932;138.594;2023-07-08T01:31:26;100967.01;;;15.87;68.39
53635;BME280;39542;-34.932;138.594;2023-07-08T01:32:01;100970.30;;;15.88;68.34
53635;BME280;39542;-34.932;138.594;2023-07-08T01:32:39;100969.62;;;15.89;68.33
53635;BME280;39542;-34.932;138.594;2023-07-08T01:33:17;100973.78;;;15.90;68.39
53635;BME280;39542;-34.932;138.594;2023-07-08T01:33:53;100968.80;;;15.90;68.39
53635;BME280;39542;-34.932;138.594;2023-07-08T01:34:27;100967.76;;;15.90;68.47
53635;BME280;39542;-34.932;138.594;2023-07-08T01:35:04;100962.33;;;15.91;68.47
53635;BME280;39542;-34.932;138.594;2023-07-08T01:35:38;100965.67;;;15.91;68.42
53635;BME280;39542;-34.932;138.594;2023-07-08T01:36:13;100966.71;;;15.91;68.49
53635;BME280;39542;-34.932;138.594;2023-07-08T01:36:49;100967.72;;;15.91;68.45
53635;BME280;39542;-34.932;138.594;2023-07-08T01:37:28;100970.49;;;15.92;68.53
53635;BME280;39542;-34.932;138.594;2023-07-08T01:38:05;100972.47;;;15.92;68.55
53635;BME280;39542;-34.932;138.594;2023-07-08T01:38:40;100976.00;;;15.92;68.48
53635;BME280;39542;-34.932;138.594;2023-07-08T01:39:18;100975.37;;;15.93;68.51
53635;BME280;39542;-34.932;138.594;2023-07-08T01:39:53;100978.53;;;15.91;68.49
53635;BME280;39542;-34.932;138.594;2023-07-08T01:40:31;100978.77;;;15.92;68.64
53635;BME280;39542;-34.932;138.594;2023-07-08T01:41:10;100981.56;;;15.95;68.58
53635;BME280;39542;-34.932;138.594;2023-07-08T01:41:45;100983.58;;;15.99;68.73
53635;BME280;39542;-34.932;138.594;2023-07-08T01:42:20;100982.43;;;15.97;68.69
53635;BME280;39542;-34.932;138.594;2023-07-08T01:42:55;100983.85;;;15.97;68.71
53635;BME280;39542;-34.932;138.594;2023-07-08T01:43:30;100983.27;;;15.98;68.67
53635;BME280;39542;-34.932;138.594;2023-07-08T01:44:05;100984.33;;;15.99;68.79
53635;BME280;39542;-34.932;138.594;2023-07-08T01:44:39;100983.08;;;15.99;68.78
53635;BME280;39542;-34.932;138.594;2023-07-08T01:45:17;100983.32;;;15.99;68.92
53635;BME280;39542;-34.932;138.594;2023-07-08T01:45:53;100980.80;;;16.00;69.52
53635;BME280;39542;-34.932;138.594;2023-07-08T01:46:28;100978.32;;;16.01;69.31
53635;BME280;39542;-34.932;138.594;2023-07-08T01:47:07;100976.63;;;16.02;69.10
53635;BME280;39542;-34.932;138.594;2023-07-08T01:47:48;100973.29;;;16.03;69.37
53635;BME280;39542;-34.932;138.594;2023-07-08T01:48:24;100968.51;;;16.03;69.19
53635;BME280;39542;-34.932;138.594;2023-07-08T01:49:02;100967.58;;;16.03;68.97
53635;BME280;39542;-34.932;138.594;2023-07-08T01:49:38;100967.24;;;16.04;68.99
53635;BME280;39542;-34.932;138.594;2023-07-08T01:50:13;100967.79;;;16.03;69.11
53635;BME280;39542;-34.932;138.594;2023-07-08T01:50:51;100970.09;;;16.03;69.04
53635;BME280;39542;-34.932;138.594;2023-07-08T01:51:27;100966.90;;;16.02;69.11
53635;BME280;39542;-34.932;138.594;2023-07-08T01:52:03;100967.46;;;16.02;69.04
53635;BME280;39542;-34.932;138.594;2023-07-08T01:52:38;100965.26;;;16.01;69.17
53635;BME280;39542;-34.932;138.594;2023-07-08T01:53:18;100964.93;;;16.00;69.15
53635;BME280;39542;-34.932;138.594;2023-07-08T01:53:53;100964.38;;;16.00;69.23
53635;BME280;39542;-34.932;138.594;2023-07-08T01:54:27;100960.37;;;15.99;69.20
53635;BME280;39542;-34.932;138.594;2023-07-08T01:55:02;100959.74;;;15.99;69.24
53635;BME280;39542;-34.932;138.594;2023-07-08T01:55:36;100959.70;;;15.98;69.28
53635;BME280;39542;-34.932;138.594;2023-07-08T01:56:12;100955.61;;;15.97;69.23
53635;BME280;39542;-34.932;138.594;2023-07-08T01:56:47;100958.53;;;15.97;69.33
53635;BME280;39542;-34.932;138.594;2023-07-08T01:57:21;100957.15;;;15.97;69.37
53635;BME280;39542;-34.932;138.594;2023-07-08T01:57:56;100959.23;;;15.96;69.25
53635;BME280;39542;-34.932;138.594;2023-07-08T01:58:30;100961.51;;;15.97;69.20
53635;BME280;39542;-34.932;138.594;2023-07-08T01:59:04;100954.02;;;15.97;69.30
53635;BME280;39542;-34.932;138.594;2023-07-08T01:59:39;100957.34;;;15.97;69.37
53635;BME280;39542;-34.932;138.594;2023-07-08T02:00:14;100954.77;;;15.97;69.36
53635;BME280;39542;-34.932;138.594;2023-07-08T02:00:48;100958.14;;;15.96;69.37
53635;BME280;39542;-34.932;138.594;2023-07-08T02:01:25;100956.90;;;15.95;69.48
53635;BME280;39542;-34.932;138.594;2023-07-08T02:02:00;100958.12;;;15.95;69.61
53635;BME280;39542;-34.932;138.594;2023-07-08T02:02:34;100953.34;;;15.95;69.53
53635;BME280;39542;-34.932;138.594;2023-07-08T02:03:09;100953.71;;;15.95;69.51
53635;BME280;39542;-34.932;138.594;2023-07-08T02:03:43;100952.30;;;15.95;69.53
53635;BME280;39542;-34.932;138.594;2023-07-08T02:04:17;100954.86;;;15.95;69.47
53635;BME280;39542;-34.932;138.594;2023-07-08T02:04:51;100959.24;;;15.95;69.54
53635;BME280;39542;-34.932;138.594;2023-07-08T02:05:26;100948.60;;;15.95;69.58
53635;BME280;39542;-34.932;138.594;2023-07-08T02:06:01;100952.59;;;15.96;69.93
53635;BME280;39542;-34.932;138.594;2023-07-08T02:06:35;100954.35;;;15.95;69.71
53635;BME280;39542;-34.932;138.594;2023-07-08T02:07:09;100961.72;;;15.95;69.70
53635;BME280;39542;-34.932;138.594;2023-07-08T02:07:44;100952.78;;;15.95;69.70
53635;BME280;39542;-34.932;138.594;2023-07-08T02:08:18;100955.13;;;15.95;69.76
53635;BME280;39542;-34.932;138.594;2023-07-08T02:08:54;100950.06;;;15.96;69.67
53635;BME280;39542;-34.932;138.594;2023-07-08T02:09:28;100952.67;;;15.95;69.73
53635;BME280;39542;-34.932;138.594;2023-07-08T02:10:03;100949.80;;;15.96;69.69
53635;BME280;39542;-34.932;138.594;2023-07-08T02:10:38;100948.96;;;15.96;69.67
53635;BME280;39542;-34.932;138.594;2023-07-08T02:11:13;100946.60;;;15.96;69.72
53635;BME280;39542;-34.932;138.594;2023-07-08T02:11:47;100940.49;;;15.96;69.81
53635;BME280;39542;-34.932;138.594;2023-07-08T02:12:22;100942.07;;;15.96;69.82
53635;BME280;39542;-34.932;138.594;2023-07-08T02:12:56;100943.90;;;15.96;69.88
53635;BME280;39542;-34.932;138.594;2023-07-08T02:13:31;100940.61;;;15.96;69.85
53635;BME280;39542;-34.932;138.594;2023-07-08T02:14:05;100940.46;;;15.96;69.78
53635;BME280;39542;-34.932;138.594;2023-07-08T02:14:40;100942.11;;;15.95;69.83
53635;BME280;39542;-34.932;138.594;2023-07-08T02:15:14;100941.71;;;15.95;69.83
53635;BME280;39542;-34.932;138.594;2023-07-08T02:15:48;100940.43;;;15.95;69.84
53635;BME280;39542;-34.932;138.594;2023-07-08T02:16:23;100942.71;;;15.95;69.86
53635;BME280;39542;-34.932;138.594;2023-07-08T02:16:57;100941.62;;;15.96;69.86
53635;BME280;39542;-34.932;138.594;2023-07-08T02:17:32;100939.22;;;15.96;70.01
53635;BME280;39542;-34.932;138.594;2023-07-08T02:18:06;100936.79;;;15.96;69.89
53635;BME280;39542;-34.932;138.594;2023-07-08T02:18:40;100937.19;;;15.97;69.92
53635;BME280;39542;-34.932;138.594;2023-07-08T02:19:15;100937.18;;;15.97;69.92
53635;BME280;39542;-34.932;138.594;2023-07-08T02:19:50;100934.61;;;15.97;69.90
53635;BME280;39542;-34.932;138.594;2023-07-08T02:20:24;100934.63;;;15.97;69.90
53635;BME280;39542;-34.932;138.594;2023-07-08T02:20:59;100932.04;;;15.97;69.88
53635;BME280;39542;-34.932;138.594;2023-07-08T02:21:33;100933.91;;;15.97;69.85
53635;BME280;39542;-34.932;138.594;2023-07-08T02:22:08;100928.46;;;15.97;69.84
53635;BME280;39542;-34.932;138.594;2023-07-08T02:22:42;100928.16;;;15.97;69.92
53635;BME280;39542;-34.932;138.594;2023-07-08T02:23:17;100931.64;;;15.98;69.96
53635;BME280;39542;-34.932;138.594;2023-07-08T02:23:53;100928.61;;;15.98;69.85
53635;BME280;39542;-34.932;138.594;2023-07-08T02:24:28;100931.08;;;15.98;69.97
53635;BME280;39542;-34.932;138.594;2023-07-08T02:25:02;100931.80;;;15.97;69.95
53635;BME280;39542;-34.932;138.594;2023-07-08T02:25:37;100928.91;;;15.96;69.90
53635;BME280;39542;-34.932;138.594;2023-07-08T02:26:11;100927.41;;;15.96;69.98
53635;BME280;39542;-34.932;138.594;2023-07-08T02:26:46;100929.81;;;15.96;69.95
53635;BME280;39542;-34.932;138.594;2023-07-08T02:27:21;100925.34;;;15.96;69.90
53635;BME280;39542;-34.932;138.594;2023-07-08T02:27:56;100930.89;;;15.97;70.06
53635;BME280;39542;-34.932;138.594;2023-07-08T02:28:30;100924.02;;;15.97;69.97
53635;BME280;39542;-34.932;138.594;2023-07-08T02:29:04;100927.02;;;15.97;69.97
53635;BME280;39542;-34.932;138.594;2023-07-08T02:29:39;100923.00;;;15.96;70.06
53635;BME280;39542;-34.932;138.594;2023-07-08T02:30:14;100926.71;;;15.96;69.90
53635;BME280;39542;-34.932;138.594;2023-07-08T02:30:48;100934.03;;;15.98;69.92
53635;BME280;39542;-34.932;138.594;2023-07-08T02:31:22;100932.97;;;15.99;69.94
53635;BME280;39542;-34.932;138.594;2023-07-08T02:31:57;100937.87;;;15.98;69.95
53635;BME280;39542;-34.932;138.594;2023-07-08T02:32:31;100935.45;;;15.98;69.96
53635;BME280;39542;-34.932;138.594;2023-07-08T02:33:05;100936.16;;;15.98;69.98
53635;BME280;39542;-34.932;138.594;2023-07-08T02:33:39;100927.77;;;15.97;69.94
53635;BME280;39542;-34.932;138.594;2023-07-08T02:34:14;100925.00;;;15.97;69.93
53635;BME280;39542;-34.932;138.594;2023-07-08T02:34:48;100927.68;;;15.98;70.00
53635;BME280;39542;-34.932;138.594;2023-07-08T02:35:25;100927.18;;;16.00;69.92
53635;BME280;39542;-34.932;138.594;2023-07-08T02:36:00;100933.78;;;16.01;70.06
53635;BME280;39542;-34.932;138.594;2023-07-08T02:36:35;100926.63;;;16.00;69.99
53635;BME280;39542;-34.932;138.594;2023-07-08T02:37:09;100922.33;;;16.01;69.95
53635;BME280;39542;-34.932;138.594;2023-07-08T02:37:44;100914.17;;;16.02;69.97
53635;BME280;39542;-34.932;138.594;2023-07-08T02:38:18;100915.18;;;16.03;70.00
53635;BME280;39542;-34.932;138.594;2023-07-08T02:38:52;100915.83;;;16.03;69.90
53635;BME280;39542;-34.932;138.594;2023-07-08T02:39:27;100914.42;;;16.01;69.96
53635;BME280;39542;-34.932;138.594;2023-07-08T02:40:01;100916.85;;;16.01;69.91
53635;BME280;39542;-34.932;138.594;2023-07-08T02:40:36;100914.02;;;16.01;69.87
53635;BME280;39542;-34.932;138.594;2023-07-08T02:41:10;100917.32;;;16.01;69.88
53635;BME280;39542;-34.932;138.594;2023-07-08T02:41:44;100916.84;;;16.01;69.87
53635;BME280;39542;-34.932;138.594;2023-07-08T02:42:19;100915.18;;;16.02;69.85
53635;BME280;39542;-34.932;138.594;2023-07-08T02:42:53;100917.36;;;16.01;69.85
53635;BME280;39542;-34.932;138.594;2023-07-08T02:43:27;100917.92;;;16.01;69.82
53635;BME280;39542;-34.932;138.594;2023-07-08T02:44:01;100921.20;;;16.00;69.76
53635;BME280;39542;-34.932;138.594;2023-07-08T02:44:35;100919.87;;;16.00;69.77
53635;BME280;39542;-34.932;138.594;2023-07-08T02:45:11;100927.35;;;16.00;69.75
53635;BME280;39542;-34.932;138.594;2023-07-08T02:45:46;100926.32;;;16.00;69.71
53635;BME280;39542;-34.932;138.594;2023-07-08T02:46:22;100934.97;;;16.01;69.74
53635;BME280;39542;-34.932;138.594;2023-07-08T02:46:57;100936.36;;;16.01;69.67
53635;BME280;39542;-34.932;138.594;2023-07-08T02:47:31;100925.39;;;16.00;69.65
53635;BME280;39542;-34.932;138.594;2023-07-08T02:48:06;100925.62;;;16.02;69.57
53635;BME280;39542;-34.932;138.594;2023-07-08T02:48:40;100925.45;;;16.03;69.55
53635;BME280;39542;-34.932;138.594;2023-07-08T02:49:15;100923.14;;;16.01;69.57
53635;BME280;39542;-34.932;138.594;2023-07-08T02:49:49;100926.17;;;16.01;69.57
53635;BME280;39542;-34.932;138.594;2023-07-08T02:50:23;100921.89;;;16.00;69.58
53635;BME280;39542;-34.932;138.594;2023-07-08T02:51:02;100915.70;;;15.99;69.59
53635;BME280;39542;-34.932;138.594;2023-07-08T02:51:36;100917.78;;;15.98;69.57
53635;BME280;39542;-34.932;138.594;2023-07-08T02:52:11;100914.97;;;15.99;69.50
53635;BME280;39542;-34.932;138.594;2023-07-08T02:52:46;100915.12;;;16.00;69.47
53635;BME280;39542;-34.932;138.594;2023-07-08T02:53:20;100917.71;;;16.00;69.45
53635;BME280;39542;-34.932;138.594;2023-07-08T02:53:54;100919.85;;;16.00;69.40
53635;BME280;39542;-34.932;138.594;2023-07-08T02:54:29;100919.55;;;16.00;69.39
53635;BME280;39542;-34.932;138.594;2023-07-08T02:55:03;100923.19;;;16.00;69.40
53635;BME280;39542;-34.932;138.594;2023-07-08T02:55:38;100925.22;;;16.00;69.31
53635;BME280;39542;-34.932;138.594;2023-07-08T02:56:12;100926.59;;;16.00;69.30
53635;BME280;39542;-34.932;138.594;2023-07-08T02:56:47;100930.48;;;15.99;69.28
53635;BME280;39542;-34.932;138.594;2023-07-08T02:57:21;100935.58;;;15.99;69.21
53635;BME280;39542;-34.932;138.594;2023-07-08T02:57:56;100934.49;;;15.99;69.24
53635;BME280;39542;-34.932;138.594;2023-07-08T02:58:30;100940.32;;;16.00;69.20
53635;BME280;39542;-34.932;138.594;2023-07-08T02:59:05;100936.82;;;16.00;69.19
53635;BME280;39542;-34.932;138.594;2023-07-08T02:59:39;100939.74;;;15.99;69.18
53635;BME280;39542;-34.932;138.594;2023-07-08T03:00:14;100945.47;;;15.99;69.16